sensor_id;sensor_type;location;lat;lon;timestamp;P1;durP1;ratioP1;P2;durP2;ratioP2
53881;SDS011;39794;55.782;37.452;2023-02-26T00:01:50;23.77;;;11.98;;
53881;SDS011;39794;55.782;37.452;2023-02-26T00:04:29;24.30;;;11.13;;
53881;SDS011;39794;55.782;37.452;2023-02-26T00:06:59;29.55;;;13.45;;
53881;SDS011;39794;55.782;37.452;2023-02-26T00:09:31;23.60;;;11.15;;
53881;SDS011;39794;55.782;37.452;2023-02-26T00:11:59;26.75;;;13.43;;
53881;SDS011;39794;55.782;37.452;2023-02-26T00:14:33;26.17;;;13.90;;
53881;SDS011;39794;55.782;37.452;2023-02-26T00:17:07;24.52;;;12.32;;
53881;SDS011;39794;55.782;37.452;2023-02-26T00:19:45;25.50;;;12.30;;
53881;SDS011;39794;55.782;37.452;2023-02-26T00:22:16;29.00;;;14.05;;
53881;SDS011;39794;55.782;37.452;2023-02-26T00:24:45;19.20;;;10.00;;
53881;SDS011;39794;55.782;37.452;2023-02-26T00:27:13;23.83;;;12.15;;
53881;SDS011;39794;55.782;37.452;2023-02-26T00:29:44;21.90;;;10.52;;
53881;SDS011;39794;55.782;37.452;2023-02-26T00:32:14;18.77;;;10.38;;
53881;SDS011;39794;55.782;37.452;2023-02-26T00:34:44;19.75;;;10.40;;
53881;SDS011;39794;55.782;37.452;2023-02-26T00:37:19;18.40;;;9.82;;
53881;SDS011;39794;55.782;37.452;2023-02-26T00:39:58;16.92;;;8.88;;
53881;SDS011;39794;55.782;37.452;2023-02-26T00:42:34;14.10;;;7.60;;
53881;SDS011;39794;55.782;37.452;2023-02-26T00:45:03;11.80;;;5.85;;
53881;SDS011;39794;55.782;37.452;2023-02-26T00:47:34;12.43;;;7.15;;
53881;SDS011;39794;55.782;37.452;2023-02-26T00:50:11;12.95;;;7.40;;
53881;SDS011;39794;55.782;37.452;2023-02-26T00:52:45;12.38;;;6.78;;
53881;SDS011;39794;55.782;37.452;2023-02-26T00:55:20;11.57;;;6.60;;
53881;SDS011;39794;55.782;37.452;2023-02-26T00:57:48;13.27;;;7.38;;
53881;SDS011;39794;55.782;37.452;2023-02-26T01:00:17;10.45;;;6.07;;
53881;SDS011;39794;55.782;37.452;2023-02-26T01:02:47;9.10;;;4.82;;
53881;SDS011;39794;55.782;37.452;2023-02-26T01:05:18;9.57;;;5.53;;
53881;SDS011;39794;55.782;37.452;2023-02-26T01:07:49;8.48;;;5.03;;
53881;SDS011;39794;55.782;37.452;2023-02-26T01:10:21;7.68;;;5.03;;
53881;SDS011;39794;55.782;37.452;2023-02-26T01:12:51;10.57;;;6.00;;
53881;SDS011;39794;55.782;37.452;2023-02-26T01:15:24;8.82;;;4.78;;
53881;SDS011;39794;55.782;37.452;2023-02-26T01:17:54;11.43;;;5.75;;
53881;SDS011;39794;55.782;37.452;2023-02-26T01:20:26;8.15;;;4.22;;
53881;SDS011;39794;55.782;37.452;2023-02-26T01:23:02;10.45;;;5.65;;
53881;SDS011;39794;55.782;37.452;2023-02-26T01:25:34;7.20;;;4.45;;
53881;SDS011;39794;55.782;37.452;2023-02-26T01:28:05;8.43;;;5.22;;
53881;SDS011;39794;55.782;37.452;2023-02-26T01:30:35;9.40;;;5.30;;
53881;SDS011;39794;55.782;37.452;2023-02-26T01:33:06;8.18;;;5.65;;
53881;SDS011;39794;55.782;37.452;2023-02-26T01:35:40;7.47;;;4.30;;
53881;SDS011;39794;55.782;37.452;2023-02-26T01:38:15;8.85;;;4.50;;
53881;SDS011;39794;55.782;37.452;2023-02-26T01:43:49;6.32;;;3.47;;
53881;SDS011;39794;55.782;37.452;2023-02-26T01:46:22;8.68;;;4.95;;
53881;SDS011;39794;55.782;37.452;2023-02-26T01:48:56;8.13;;;4.65;;
53881;SDS011;39794;55.782;37.452;2023-02-26T01:51:45;7.35;;;3.92;;
53881;SDS011;39794;55.782;37.452;2023-02-26T01:54:28;5.18;;;3.50;;
53881;SDS011;39794;55.782;37.452;2023-02-26T01:56:59;6.63;;;4.47;;
53881;SDS011;39794;55.782;37.452;2023-02-26T01:59:30;6.75;;;4.45;;
53881;SDS011;39794;55.782;37.452;2023-02-26T02:02:01;7.50;;;4.60;;
53881;SDS011;39794;55.782;37.452;2023-02-26T02:04:32;5.40;;;3.83;;
53881;SDS011;39794;55.782;37.452;2023-02-26T02:07:00;6.25;;;3.50;;
53881;SDS011;39794;55.782;37.452;2023-02-26T02:09:31;5.45;;;3.63;;
53881;SDS011;39794;55.782;37.452;2023-02-26T02:12:09;6.35;;;3.72;;
53881;SDS011;39794;55.782;37.452;2023-02-26T02:14:44;5.40;;;3.65;;
53881;SDS011;39794;55.782;37.452;2023-02-26T02:17:21;6.55;;;4.00;;
53881;SDS011;39794;55.782;37.452;2023-02-26T02:23:07;5.60;;;3.70;;
53881;SDS011;39794;55.782;37.452;2023-02-26T02:28:58;6.38;;;4.38;;
53881;SDS011;39794;55.782;37.452;2023-02-26T02:31:52;4.72;;;3.38;;
53881;SDS011;39794;55.782;37.452;2023-02-26T02:34:25;6.00;;;3.57;;
53881;SDS011;39794;55.782;37.452;2023-02-26T02:36:56;5.15;;;3.38;;
53881;SDS011;39794;55.782;37.452;2023-02-26T02:39:28;6.68;;;4.15;;
53881;SDS011;39794;55.782;37.452;2023-02-26T02:41:59;8.57;;;4.32;;
53881;SDS011;39794;55.782;37.452;2023-02-26T02:44:32;6.90;;;4.30;;
53881;SDS011;39794;55.782;37.452;2023-02-26T02:47:05;8.45;;;4.65;;
53881;SDS011;39794;55.782;37.452;2023-02-26T02:49:37;5.22;;;4.07;;
53881;SDS011;39794;55.782;37.452;2023-02-26T02:52:11;6.90;;;4.25;;
53881;SDS011;39794;55.782;37.452;2023-02-26T02:54:43;7.18;;;3.72;;
53881;SDS011;39794;55.782;37.452;2023-02-26T02:57:14;5.40;;;3.63;;
53881;SDS011;39794;55.782;37.452;2023-02-26T02:59:47;6.25;;;3.97;;
53881;SDS011;39794;55.782;37.452;2023-02-26T03:02:22;4.55;;;3.13;;
53881;SDS011;39794;55.782;37.452;2023-02-26T03:04:57;5.30;;;3.75;;
53881;SDS011;39794;55.782;37.452;2023-02-26T03:07:29;5.10;;;3.70;;
53881;SDS011;39794;55.782;37.452;2023-02-26T03:09:59;5.35;;;3.40;;
53881;SDS011;39794;55.782;37.452;2023-02-26T03:12:30;6.35;;;4.15;;
53881;SDS011;39794;55.782;37.452;2023-02-26T03:15:00;5.32;;;3.67;;
53881;SDS011;39794;55.782;37.452;2023-02-26T03:17:32;4.97;;;3.42;;
53881;SDS011;39794;55.782;37.452;2023-02-26T03:20:08;6.10;;;3.80;;
53881;SDS011;39794;55.782;37.452;2023-02-26T03:22:49;5.35;;;3.78;;
53881;SDS011;39794;55.782;37.452;2023-02-26T03:25:25;5.90;;;3.83;;
53881;SDS011;39794;55.782;37.452;2023-02-26T03:28:00;5.00;;;3.72;;
53881;SDS011;39794;55.782;37.452;2023-02-26T03:30:37;5.68;;;4.03;;
53881;SDS011;39794;55.782;37.452;2023-02-26T03:33:11;6.10;;;4.45;;
53881;SDS011;39794;55.782;37.452;2023-02-26T03:35:44;6.57;;;4.22;;
53881;SDS011;39794;55.782;37.452;2023-02-26T03:38:18;5.25;;;3.40;;
53881;SDS011;39794;55.782;37.452;2023-02-26T03:40:53;7.30;;;3.70;;
53881;SDS011;39794;55.782;37.452;2023-02-26T03:43:26;6.47;;;3.25;;
53881;SDS011;39794;55.782;37.452;2023-02-26T03:45:58;6.25;;;3.22;;
53881;SDS011;39794;55.782;37.452;2023-02-26T03:48:31;4.68;;;3.38;;
53881;SDS011;39794;55.782;37.452;2023-02-26T03:51:03;8.13;;;3.85;;
53881;SDS011;39794;55.782;37.452;2023-02-26T03:54:12;5.63;;;3.90;;
53881;SDS011;39794;55.782;37.452;2023-02-26T03:56:46;3.80;;;2.75;;
53881;SDS011;39794;55.782;37.452;2023-02-26T03:59:54;4.80;;;3.65;;
53881;SDS011;39794;55.782;37.452;2023-02-26T04:02:41;4.03;;;2.17;;
53881;SDS011;39794;55.782;37.452;2023-02-26T04:05:18;6.72;;;3.88;;
53881;SDS011;39794;55.782;37.452;2023-02-26T04:07:49;7.35;;;3.67;;
53881;SDS011;39794;55.782;37.452;2023-02-26T04:10:19;4.82;;;3.50;;
53881;SDS011;39794;55.782;37.452;2023-02-26T04:12:49;6.40;;;4.07;;
53881;SDS011;39794;55.782;37.452;2023-02-26T04:15:17;7.72;;;3.85;;
53881;SDS011;39794;55.782;37.452;2023-02-26T04:17:47;5.57;;;3.90;;
53881;SDS011;39794;55.782;37.452;2023-02-26T04:20:15;5.50;;;4.03;;
53881;SDS011;39794;55.782;37.452;2023-02-26T04:22:45;5.95;;;3.42;;
53881;SDS011;39794;55.782;37.452;2023-02-26T04:25:14;7.00;;;4.10;;
53881;SDS011;39794;55.782;37.452;2023-02-26T04:27:43;6.22;;;4.07;;
53881;SDS011;39794;55.782;37.452;2023-02-26T04:30:12;5.80;;;3.97;;
53881;SDS011;39794;55.782;37.452;2023-02-26T04:32:41;5.38;;;4.35;;
53881;SDS011;39794;55.782;37.452;2023-02-26T04:35:12;7.60;;;4.43;;
53881;SDS011;39794;55.782;37.452;2023-02-26T04:37:42;7.07;;;4.28;;
53881;SDS011;39794;55.782;37.452;2023-02-26T04:40:14;6.88;;;4.55;;
53881;SDS011;39794;55.782;37.452;2023-02-26T04:42:42;6.20;;;3.60;;
53881;SDS011;39794;55.782;37.452;2023-02-26T04:45:16;5.68;;;4.00;;
53881;SDS011;39794;55.782;37.452;2023-02-26T04:47:46;6.50;;;3.45;;
53881;SDS011;39794;55.782;37.452;2023-02-26T04:50:15;7.10;;;3.10;;
53881;SDS011;39794;55.782;37.452;2023-02-26T04:52:46;4.43;;;3.15;;
53881;SDS011;39794;55.782;37.452;2023-02-26T04:55:17;4.80;;;3.50;;
53881;SDS011;39794;55.782;37.452;2023-02-26T04:57:46;4.72;;;2.75;;
53881;SDS011;39794;55.782;37.452;2023-02-26T05:00:20;4.95;;;2.70;;
53881;SDS011;39794;55.782;37.452;2023-02-26T05:02:49;3.65;;;2.60;;
53881;SDS011;39794;55.782;37.452;2023-02-26T05:05:18;3.65;;;2.53;;
53881;SDS011;39794;55.782;37.452;2023-02-26T05:07:47;3.28;;;2.17;;
53881;SDS011;39794;55.782;37.452;2023-02-26T05:10:18;4.13;;;2.53;;
53881;SDS011;39794;55.782;37.452;2023-02-26T05:12:48;4.50;;;2.40;;
53881;SDS011;39794;55.782;37.452;2023-02-26T05:15:18;2.25;;;1.73;;
53881;SDS011;39794;55.782;37.452;2023-02-26T05:17:48;4.30;;;1.90;;
53881;SDS011;39794;55.782;37.452;2023-02-26T05:20:16;2.30;;;1.70;;
53881;SDS011;39794;55.782;37.452;2023-02-26T05:22:45;4.53;;;2.15;;
53881;SDS011;39794;55.782;37.452;2023-02-26T05:25:14;3.50;;;1.88;;
53881;SDS011;39794;55.782;37.452;2023-02-26T05:27:44;2.50;;;1.55;;
53881;SDS011;39794;55.782;37.452;2023-02-26T05:30:15;2.97;;;1.33;;
53881;SDS011;39794;55.782;37.452;2023-02-26T05:32:44;2.58;;;1.60;;
53881;SDS011;39794;55.782;37.452;2023-02-26T05:35:13;1.45;;;1.35;;
53881;SDS011;39794;55.782;37.452;2023-02-26T05:37:42;1.98;;;1.55;;
53881;SDS011;39794;55.782;37.452;2023-02-26T05:40:11;1.63;;;1.50;;
53881;SDS011;39794;55.782;37.452;2023-02-26T05:42:40;2.20;;;1.55;;
53881;SDS011;39794;55.782;37.452;2023-02-26T05:45:10;1.80;;;1.60;;
53881;SDS011;39794;55.782;37.452;2023-02-26T05:47:39;4.43;;;1.30;;
53881;SDS011;39794;55.782;37.452;2023-02-26T05:50:09;6.40;;;1.63;;
53881;SDS011;39794;55.782;37.452;2023-02-26T05:52:38;2.88;;;1.40;;
53881;SDS011;39794;55.782;37.452;2023-02-26T05:55:07;2.20;;;1.48;;
53881;SDS011;39794;55.782;37.452;2023-02-26T05:57:37;4.45;;;1.60;;
53881;SDS011;39794;55.782;37.452;2023-02-26T06:00:06;1.73;;;1.40;;
53881;SDS011;39794;55.782;37.452;2023-02-26T06:02:40;1.98;;;1.48;;
53881;SDS011;39794;55.782;37.452;2023-02-26T06:05:09;4.28;;;1.40;;
53881;SDS011;39794;55.782;37.452;2023-02-26T06:07:37;2.40;;;1.55;;
53881;SDS011;39794;55.782;37.452;2023-02-26T06:10:08;4.03;;;1.70;;
53881;SDS011;39794;55.782;37.452;2023-02-26T06:12:39;1.75;;;1.58;;
53881;SDS011;39794;55.782;37.452;2023-02-26T06:15:08;3.13;;;1.77;;
53881;SDS011;39794;55.782;37.452;2023-02-26T06:17:37;4.40;;;1.63;;
53881;SDS011;39794;55.782;37.452;2023-02-26T06:20:08;1.80;;;1.25;;
53881;SDS011;39794;55.782;37.452;2023-02-26T06:22:38;1.55;;;1.45;;
53881;SDS011;39794;55.782;37.452;2023-02-26T06:25:07;4.20;;;1.77;;
53881;SDS011;39794;55.782;37.452;2023-02-26T06:27:37;1.95;;;1.58;;
53881;SDS011;39794;55.782;37.452;2023-02-26T06:30:06;1.95;;;1.60;;
53881;SDS011;39794;55.782;37.452;2023-02-26T06:32:35;4.60;;;1.65;;
53881;SDS011;39794;55.782;37.452;2023-02-26T06:35:06;1.90;;;1.48;;
53881;SDS011;39794;55.782;37.452;2023-02-26T06:37:35;2.17;;;1.40;;
53881;SDS011;39794;55.782;37.452;2023-02-26T06:40:04;8.95;;;2.35;;
53881;SDS011;39794;55.782;37.452;2023-02-26T06:42:38;4.32;;;1.60;;
53881;SDS011;39794;55.782;37.452;2023-02-26T06:45:07;3.50;;;1.70;;
53881;SDS011;39794;55.782;37.452;2023-02-26T06:47:36;3.22;;;1.30;;
53881;SDS011;39794;55.782;37.452;2023-02-26T06:50:07;3.53;;;1.73;;
53881;SDS011;39794;55.782;37.452;2023-02-26T06:52:36;1.70;;;1.60;;
53881;SDS011;39794;55.782;37.452;2023-02-26T06:55:05;4.25;;;2.20;;
53881;SDS011;39794;55.782;37.452;2023-02-26T06:57:35;4.53;;;2.63;;
53881;SDS011;39794;55.782;37.452;2023-02-26T07:00:04;5.72;;;2.60;;
53881;SDS011;39794;55.782;37.452;2023-02-26T07:02:34;3.35;;;2.63;;
53881;SDS011;39794;55.782;37.452;2023-02-26T07:05:06;1.77;;;1.50;;
53881;SDS011;39794;55.782;37.452;2023-02-26T07:07:36;2.55;;;1.90;;
53881;SDS011;39794;55.782;37.452;2023-02-26T07:10:05;4.07;;;1.95;;
53881;SDS011;39794;55.782;37.452;2023-02-26T07:12:38;2.28;;;1.90;;
53881;SDS011;39794;55.782;37.452;2023-02-26T07:15:07;2.70;;;1.95;;
53881;SDS011;39794;55.782;37.452;2023-02-26T07:17:36;3.45;;;1.80;;
53881;SDS011;39794;55.782;37.452;2023-02-26T07:20:05;4.97;;;1.92;;
53881;SDS011;39794;55.782;37.452;2023-02-26T07:22:37;2.70;;;2.08;;
53881;SDS011;39794;55.782;37.452;2023-02-26T07:25:06;1.83;;;1.70;;
53881;SDS011;39794;55.782;37.452;2023-02-26T07:27:35;4.78;;;2.50;;
53881;SDS011;39794;55.782;37.452;2023-02-26T07:30:04;2.65;;;2.17;;
53881;SDS011;39794;55.782;37.452;2023-02-26T07:32:34;8.27;;;2.13;;
53881;SDS011;39794;55.782;37.452;2023-02-26T07:35:04;5.63;;;1.95;;
53881;SDS011;39794;55.782;37.452;2023-02-26T07:37:34;5.43;;;2.40;;
53881;SDS011;39794;55.782;37.452;2023-02-26T07:40:04;3.03;;;1.90;;
53881;SDS011;39794;55.782;37.452;2023-02-26T07:42:33;2.65;;;1.98;;
53881;SDS011;39794;55.782;37.452;2023-02-26T07:45:02;3.95;;;1.70;;
53881;SDS011;39794;55.782;37.452;2023-02-26T07:47:31;4.10;;;1.70;;
53881;SDS011;39794;55.782;37.452;2023-02-26T07:50:00;4.88;;;1.67;;
53881;SDS011;39794;55.782;37.452;2023-02-26T07:52:29;5.25;;;1.88;;
53881;SDS011;39794;55.782;37.452;2023-02-26T07:54:58;19.80;;;2.83;;
53881;SDS011;39794;55.782;37.452;2023-02-26T07:57:28;6.15;;;2.00;;
53881;SDS011;39794;55.782;37.452;2023-02-26T07:59:57;2.55;;;1.70;;
53881;SDS011;39794;55.782;37.452;2023-02-26T08:02:25;4.07;;;2.30;;
53881;SDS011;39794;55.782;37.452;2023-02-26T08:04:54;8.85;;;2.63;;
53881;SDS011;39794;55.782;37.452;2023-02-26T08:07:23;12.25;;;2.20;;
53881;SDS011;39794;55.782;37.452;2023-02-26T08:09:52;3.75;;;1.58;;
53881;SDS011;39794;55.782;37.452;2023-02-26T08:12:22;2.20;;;1.58;;
53881;SDS011;39794;55.782;37.452;2023-02-26T08:14:50;2.40;;;1.50;;
53881;SDS011;39794;55.782;37.452;2023-02-26T08:17:19;2.20;;;1.50;;
53881;SDS011;39794;55.782;37.452;2023-02-26T08:19:47;2.72;;;1.58;;
53881;SDS011;39794;55.782;37.452;2023-02-26T08:22:16;5.00;;;1.45;;
53881;SDS011;39794;55.782;37.452;2023-02-26T08:24:45;2.30;;;1.48;;
53881;SDS011;39794;55.782;37.452;2023-02-26T08:27:15;3.60;;;1.58;;
53881;SDS011;39794;55.782;37.452;2023-02-26T08:29:47;3.30;;;1.60;;
53881;SDS011;39794;55.782;37.452;2023-02-26T08:32:17;3.53;;;1.35;;
53881;SDS011;39794;55.782;37.452;2023-02-26T08:34:49;2.00;;;1.23;;
53881;SDS011;39794;55.782;37.452;2023-02-26T08:37:17;2.35;;;1.27;;
53881;SDS011;39794;55.782;37.452;2023-02-26T08:39:48;2.83;;;1.67;;
53881;SDS011;39794;55.782;37.452;2023-02-26T08:42:17;2.85;;;1.40;;
53881;SDS011;39794;55.782;37.452;2023-02-26T08:44:48;1.60;;;1.30;;
53881;SDS011;39794;55.782;37.452;2023-02-26T08:47:16;2.42;;;1.30;;
53881;SDS011;39794;55.782;37.452;2023-02-26T08:49:54;2.45;;;1.38;;
53881;SDS011;39794;55.782;37.452;2023-02-26T08:52:24;2.58;;;1.05;;
53881;SDS011;39794;55.782;37.452;2023-02-26T08:54:53;3.53;;;1.02;;
53881;SDS011;39794;55.782;37.452;2023-02-26T08:57:22;1.40;;;1.00;;
53881;SDS011;39794;55.782;37.452;2023-02-26T08:59:51;7.13;;;1.30;;
53881;SDS011;39794;55.782;37.452;2023-02-26T09:02:20;3.13;;;1.10;;
53881;SDS011;39794;55.782;37.452;2023-02-26T09:04:48;0.68;;;0.68;;
53881;SDS011;39794;55.782;37.452;2023-02-26T09:07:17;1.20;;;1.00;;
53881;SDS011;39794;55.782;37.452;2023-02-26T09:09:46;3.67;;;1.05;;
53881;SDS011;39794;55.782;37.452;2023-02-26T09:12:15;1.70;;;0.90;;
53881;SDS011;39794;55.782;37.452;2023-02-26T09:14:43;3.40;;;1.20;;
53881;SDS011;39794;55.782;37.452;2023-02-26T09:17:13;2.33;;;1.00;;
53881;SDS011;39794;55.782;37.452;2023-02-26T09:19:43;1.63;;;1.33;;
53881;SDS011;39794;55.782;37.452;2023-02-26T09:22:14;2.55;;;1.10;;
53881;SDS011;39794;55.782;37.452;2023-02-26T09:24:43;1.05;;;0.85;;
53881;SDS011;39794;55.782;37.452;2023-02-26T09:27:11;2.22;;;1.13;;
53881;SDS011;39794;55.782;37.452;2023-02-26T09:29:40;1.67;;;1.33;;
53881;SDS011;39794;55.782;37.452;2023-02-26T09:32:09;3.30;;;1.20;;
53881;SDS011;39794;55.782;37.452;2023-02-26T09:34:39;1.40;;;1.17;;
53881;SDS011;39794;55.782;37.452;2023-02-26T09:37:08;2.20;;;1.17;;
53881;SDS011;39794;55.782;37.452;2023-02-26T09:39:37;1.73;;;1.00;;
53881;SDS011;39794;55.782;37.452;2023-02-26T09:42:08;1.95;;;1.20;;
53881;SDS011;39794;55.782;37.452;2023-02-26T09:44:41;1.88;;;1.17;;
53881;SDS011;39794;55.782;37.452;2023-02-26T09:47:12;1.70;;;1.10;;
53881;SDS011;39794;55.782;37.452;2023-02-26T09:49:48;1.23;;;1.08;;
53881;SDS011;39794;55.782;37.452;2023-02-26T09:52:24;2.75;;;1.27;;
53881;SDS011;39794;55.782;37.452;2023-02-26T09:54:57;1.45;;;1.30;;
53881;SDS011;39794;55.782;37.452;2023-02-26T09:57:29;2.63;;;1.08;;
53881;SDS011;39794;55.782;37.452;2023-02-26T09:59:59;4.65;;;1.20;;
53881;SDS011;39794;55.782;37.452;2023-02-26T10:02:39;1.63;;;1.38;;
53881;SDS011;39794;55.782;37.452;2023-02-26T10:05:17;1.55;;;1.20;;
53881;SDS011;39794;55.782;37.452;2023-02-26T10:07:51;1.40;;;1.10;;
53881;SDS011;39794;55.782;37.452;2023-02-26T10:10:26;1.42;;;1.33;;
53881;SDS011;39794;55.782;37.452;2023-02-26T10:13:01;2.78;;;1.13;;
53881;SDS011;39794;55.782;37.452;2023-02-26T10:15:31;1.50;;;1.20;;
53881;SDS011;39794;55.782;37.452;2023-02-26T10:18:06;1.85;;;1.65;;
53881;SDS011;39794;55.782;37.452;2023-02-26T10:20:40;2.80;;;1.05;;
53881;SDS011;39794;55.782;37.452;2023-02-26T10:23:15;1.50;;;1.15;;
53881;SDS011;39794;55.782;37.452;2023-02-26T10:25:48;1.60;;;1.13;;
53881;SDS011;39794;55.782;37.452;2023-02-26T10:28:27;2.85;;;1.38;;
53881;SDS011;39794;55.782;37.452;2023-02-26T10:31:08;3.60;;;1.27;;
53881;SDS011;39794;55.782;37.452;2023-02-26T10:33:45;2.92;;;1.35;;
53881;SDS011;39794;55.782;37.452;2023-02-26T10:36:18;2.77;;;1.20;;
53881;SDS011;39794;55.782;37.452;2023-02-26T10:38:51;2.72;;;1.40;;
53881;SDS011;39794;55.782;37.452;2023-02-26T10:41:24;1.60;;;1.20;;
53881;SDS011;39794;55.782;37.452;2023-02-26T10:43:56;2.33;;;1.50;;
53881;SDS011;39794;55.782;37.452;2023-02-26T10:46:29;4.10;;;1.43;;
53881;SDS011;39794;55.782;37.452;2023-02-26T10:49:09;4.75;;;1.50;;
53881;SDS011;39794;55.782;37.452;2023-02-26T10:51:52;1.83;;;1.35;;
53881;SDS011;39794;55.782;37.452;2023-02-26T10:54:23;2.53;;;1.50;;
53881;SDS011;39794;55.782;37.452;2023-02-26T10:56:55;2.05;;;1.70;;
53881;SDS011;39794;55.782;37.452;2023-02-26T10:59:23;3.90;;;1.20;;
53881;SDS011;39794;55.782;37.452;2023-02-26T11:01:53;2.50;;;1.40;;
53881;SDS011;39794;55.782;37.452;2023-02-26T11:04:22;2.42;;;1.40;;
53881;SDS011;39794;55.782;37.452;2023-02-26T11:06:56;2.22;;;1.48;;
53881;SDS011;39794;55.782;37.452;2023-02-26T11:09:28;2.50;;;1.30;;
53881;SDS011;39794;55.782;37.452;2023-02-26T11:12:00;3.55;;;1.80;;
53881;SDS011;39794;55.782;37.452;2023-02-26T11:14:32;2.28;;;1.33;;
53881;SDS011;39794;55.782;37.452;2023-02-26T11:17:06;6.30;;;3.58;;
53881;SDS011;39794;55.782;37.452;2023-02-26T11:19:39;1.77;;;1.42;;
53881;SDS011;39794;55.782;37.452;2023-02-26T11:22:12;3.08;;;1.92;;
53881;SDS011;39794;55.782;37.452;2023-02-26T11:24:42;2.35;;;1.52;;
53881;SDS011;39794;55.782;37.452;2023-02-26T11:27:14;3.38;;;1.60;;
53881;SDS011;39794;55.782;37.452;2023-02-26T11:29:45;2.05;;;1.20;;
53881;SDS011;39794;55.782;37.452;2023-02-26T11:32:16;3.22;;;1.38;;
53881;SDS011;39794;55.782;37.452;2023-02-26T11:34:46;3.95;;;1.83;;
53881;SDS011;39794;55.782;37.452;2023-02-26T11:37:20;3.38;;;1.50;;
53881;SDS011;39794;55.782;37.452;2023-02-26T11:39:53;4.35;;;1.38;;
53881;SDS011;39794;55.782;37.452;2023-02-26T11:42:24;2.88;;;1.60;;
53881;SDS011;39794;55.782;37.452;2023-02-26T11:44:54;1.23;;;1.08;;
53881;SDS011;39794;55.782;37.452;2023-02-26T11:47:23;1.83;;;1.20;;
53881;SDS011;39794;55.782;37.452;2023-02-26T11:49:55;1.30;;;1.00;;
53881;SDS011;39794;55.782;37.452;2023-02-26T11:52:33;2.33;;;1.25;;
53881;SDS011;39794;55.782;37.452;2023-02-26T11:55:04;3.75;;;1.50;;
53881;SDS011;39794;55.782;37.452;2023-02-26T11:57:49;3.13;;;1.58;;
53881;SDS011;39794;55.782;37.452;2023-02-26T12:00:23;2.58;;;1.25;;
53881;SDS011;39794;55.782;37.452;2023-02-26T12:02:55;1.50;;;1.30;;
53881;SDS011;39794;55.782;37.452;2023-02-26T12:07:59;1.98;;;1.27;;
53881;SDS011;39794;55.782;37.452;2023-02-26T12:10:32;0.98;;;0.88;;
53881;SDS011;39794;55.782;37.452;2023-02-26T12:13:07;1.00;;;0.70;;
53881;SDS011;39794;55.782;37.452;2023-02-26T12:15:43;2.72;;;1.40;;
53881;SDS011;39794;55.782;37.452;2023-02-26T12:21:09;4.75;;;1.63;;
53881;SDS011;39794;55.782;37.452;2023-02-26T12:23:54;3.20;;;2.40;;
53881;SDS011;39794;55.782;37.452;2023-02-26T12:26:31;2.92;;;1.40;;
53881;SDS011;39794;55.782;37.452;2023-02-26T12:29:04;3.70;;;1.35;;
53881;SDS011;39794;55.782;37.452;2023-02-26T12:31:58;4.35;;;1.45;;
53881;SDS011;39794;55.782;37.452;2023-02-26T12:34:47;1.60;;;1.23;;
53881;SDS011;39794;55.782;37.452;2023-02-26T12:37:29;1.35;;;1.20;;
53881;SDS011;39794;55.782;37.452;2023-02-26T12:40:11;1.92;;;1.42;;
53881;SDS011;39794;55.782;37.452;2023-02-26T12:42:58;1.95;;;0.95;;
53881;SDS011;39794;55.782;37.452;2023-02-26T12:45:34;1.55;;;1.27;;
53881;SDS011;39794;55.782;37.452;2023-02-26T12:48:29;3.63;;;1.67;;
53881;SDS011;39794;55.782;37.452;2023-02-26T12:51:15;1.85;;;1.50;;
53881;SDS011;39794;55.782;37.452;2023-02-26T12:54:02;4.80;;;1.70;;
53881;SDS011;39794;55.782;37.452;2023-02-26T13:00:01;2.90;;;1.65;;
53881;SDS011;39794;55.782;37.452;2023-02-26T13:05:41;3.08;;;1.60;;
53881;SDS011;39794;55.782;37.452;2023-02-26T13:08:19;2.55;;;1.90;;
53881;SDS011;39794;55.782;37.452;2023-02-26T13:10:52;3.60;;;1.90;;
53881;SDS011;39794;55.782;37.452;2023-02-26T13:16:29;3.10;;;2.22;;
53881;SDS011;39794;55.782;37.452;2023-02-26T13:19:04;3.22;;;2.25;;
53881;SDS011;39794;55.782;37.452;2023-02-26T13:21:40;4.40;;;2.90;;
53881;SDS011;39794;55.782;37.452;2023-02-26T13:24:13;4.10;;;2.97;;
53881;SDS011;39794;55.782;37.452;2023-02-26T13:26:44;5.25;;;2.72;;
53881;SDS011;39794;55.782;37.452;2023-02-26T13:29:16;4.60;;;2.92;;
53881;SDS011;39794;55.782;37.452;2023-02-26T13:31:48;4.18;;;2.88;;
53881;SDS011;39794;55.782;37.452;2023-02-26T13:34:22;4.18;;;3.08;;
53881;SDS011;39794;55.782;37.452;2023-02-26T13:36:58;4.13;;;2.92;;
53881;SDS011;39794;55.782;37.452;2023-02-26T13:39:31;5.07;;;3.50;;
53881;SDS011;39794;55.782;37.452;2023-02-26T13:42:09;4.90;;;3.30;;
53881;SDS011;39794;55.782;37.452;2023-02-26T13:44:47;6.07;;;4.10;;
53881;SDS011;39794;55.782;37.452;2023-02-26T13:47:42;6.15;;;4.05;;
53881;SDS011;39794;55.782;37.452;2023-02-26T13:50:25;4.97;;;3.33;;
53881;SDS011;39794;55.782;37.452;2023-02-26T13:53:00;6.13;;;3.88;;
53881;SDS011;39794;55.782;37.452;2023-02-26T13:55:42;7.22;;;4.53;;
53881;SDS011;39794;55.782;37.452;2023-02-26T13:58:16;7.72;;;4.47;;
53881;SDS011;39794;55.782;37.452;2023-02-26T14:01:03;9.57;;;4.40;;
53881;SDS011;39794;55.782;37.452;2023-02-26T14:03:35;8.40;;;4.85;;
53881;SDS011;39794;55.782;37.452;2023-02-26T14:08:55;5.80;;;3.42;;
53881;SDS011;39794;55.782;37.452;2023-02-26T14:14:34;9.88;;;3.85;;
53881;SDS011;39794;55.782;37.452;2023-02-26T14:17:19;8.02;;;4.57;;
53881;SDS011;39794;55.782;37.452;2023-02-26T14:20:13;7.57;;;4.45;;
53881;SDS011;39794;55.782;37.452;2023-02-26T14:22:51;9.07;;;5.45;;
53881;SDS011;39794;55.782;37.452;2023-02-26T14:25:26;9.55;;;5.70;;
53881;SDS011;39794;55.782;37.452;2023-02-26T14:30:49;8.75;;;5.63;;
53881;SDS011;39794;55.782;37.452;2023-02-26T14:33:26;7.95;;;4.82;;
53881;SDS011;39794;55.782;37.452;2023-02-26T14:35:56;9.15;;;5.10;;
53881;SDS011;39794;55.782;37.452;2023-02-26T14:38:25;10.65;;;5.93;;
53881;SDS011;39794;55.782;37.452;2023-02-26T14:40:57;8.50;;;5.70;;
53881;SDS011;39794;55.782;37.452;2023-02-26T14:43:30;10.45;;;5.97;;
53881;SDS011;39794;55.782;37.452;2023-02-26T14:46:02;9.52;;;5.97;;
53881;SDS011;39794;55.782;37.452;2023-02-26T14:48:33;9.30;;;5.68;;
53881;SDS011;39794;55.782;37.452;2023-02-26T14:51:05;10.27;;;5.90;;
53881;SDS011;39794;55.782;37.452;2023-02-26T14:53:49;8.40;;;5.45;;
53881;SDS011;39794;55.782;37.452;2023-02-26T14:56:36;10.20;;;6.03;;
53881;SDS011;39794;55.782;37.452;2023-02-26T14:59:18;10.18;;;5.75;;
53881;SDS011;39794;55.782;37.452;2023-02-26T15:01:54;10.65;;;6.10;;
53881;SDS011;39794;55.782;37.452;2023-02-26T15:04:35;9.13;;;5.93;;
53881;SDS011;39794;55.782;37.452;2023-02-26T15:07:17;11.27;;;5.80;;
53881;SDS011;39794;55.782;37.452;2023-02-26T15:09:58;10.15;;;6.32;;
53881;SDS011;39794;55.782;37.452;2023-02-26T15:12:38;9.95;;;5.95;;
53881;SDS011;39794;55.782;37.452;2023-02-26T15:15:19;8.02;;;5.28;;
53881;SDS011;39794;55.782;37.452;2023-02-26T15:17:59;10.00;;;5.57;;
53881;SDS011;39794;55.782;37.452;2023-02-26T15:20:36;7.57;;;5.22;;
53881;SDS011;39794;55.782;37.452;2023-02-26T15:23:23;7.57;;;5.43;;
53881;SDS011;39794;55.782;37.452;2023-02-26T15:28:29;10.25;;;5.55;;
53881;SDS011;39794;55.782;37.452;2023-02-26T15:30:58;9.60;;;5.97;;
53881;SDS011;39794;55.782;37.452;2023-02-26T15:33:28;12.23;;;6.05;;
53881;SDS011;39794;55.782;37.452;2023-02-26T15:36:04;10.02;;;6.35;;
53881;SDS011;39794;55.782;37.452;2023-02-26T15:38:39;11.15;;;6.28;;
53881;SDS011;39794;55.782;37.452;2023-02-26T15:41:09;9.30;;;5.82;;
53881;SDS011;39794;55.782;37.452;2023-02-26T15:43:40;8.10;;;5.47;;